Time;durP1;ratioP1;P1;durP2;ratioP2;P2;SDS_P1;SDS_P2;PMS_P1;PMS_P2;Temp;Humidity;BMP_temperature;BMP_pressure;BME280_temperature;BME280_humidity;BME280_pressure;Samples;Min_cycle;Max_cycle;Signal;HPM_P1;HPM_P2
2022/06/08 00:00:38;;;;;;;3.72;1.10;;;15.60;99.90;;;;;;4094022;29;20059;-49
2022/06/08 00:03:10;;;;;;;3.58;1.45;;;15.30;99.90;;;;;;4078007;29;20410;-47
2022/06/08 00:05:31;;;;;;;1.40;0.95;;;15.10;99.90;;;;;;4078002;29;20098;-46
2022/06/08 00:07:53;;;;;;;3.88;1.23;;;15.10;99.90;;;;;;4082758;29;20114;-47
2022/06/08 00:10:14;;;;;;;0.98;0.98;;;15.00;99.90;;;;;;4093773;29;20062;-48
2022/06/08 00:12:38;;;;;;;3.22;1.30;;;15.10;99.90;;;;;;4078074;29;20207;-48
2022/06/08 00:14:59;;;;;;;1.85;1.00;;;15.10;99.90;;;;;;4087769;29;20058;-47
2022/06/08 00:17:21;;;;;;;1.35;1.25;;;15.30;99.90;;;;;;4094921;28;20256;-48
2022/06/08 00:19:42;;;;;;;2.00;1.10;;;15.30;99.90;;;;;;4096468;29;20117;-46
2022/06/08 00:22:04;;;;;;;1.70;1.00;;;15.20;99.90;;;;;;4080586;29;20895;-47
2022/06/08 00:24:26;;;;;;;1.00;1.00;;;15.10;99.90;;;;;;4090260;29;20055;-49
2022/06/08 00:26:48;;;;;;;1.00;1.00;;;14.80;99.90;;;;;;4096321;29;20097;-49
2022/06/08 00:29:09;;;;;;;0.95;0.95;;;14.90;99.90;;;;;;4096516;29;20089;-50
2022/06/08 00:31:31;;;;;;;1.63;1.13;;;14.90;99.90;;;;;;4096222;29;20093;-47
2022/06/08 00:33:52;;;;;;;2.25;1.00;;;15.00;99.90;;;;;;4094870;29;20614;-49
2022/06/08 00:36:14;;;;;;;2.05;1.00;;;15.20;99.90;;;;;;4094045;29;20058;-48
2022/06/08 00:38:36;;;;;;;3.42;1.25;;;15.30;99.90;;;;;;4080179;29;20051;-49
2022/06/08 00:41:24;;;;;;;2.10;1.13;;;15.00;99.90;;;;;;4094493;29;20223;-49
2022/06/08 00:43:47;;;;;;;3.95;1.83;;;14.90;99.90;;;;;;4096110;29;20556;-49
2022/06/08 00:46:10;;;;;;;2.53;1.00;;;15.10;99.90;;;;;;4091356;29;20046;-48
2022/06/08 00:48:41;;;;;;;1.48;0.90;;;15.20;99.90;;;;;;4080619;29;20102;-50
2022/06/08 00:51:05;;;;;;;2.10;1.00;;;15.30;99.90;;;;;;4095396;29;20097;-48
2022/06/08 00:53:47;;;;;;;;;;;15.10;99.90;;;;;;4096608;29;20325;-48
2022/06/08 00:56:16;;;;;;;4.68;1.55;;;14.90;99.90;;;;;;4089127;28;20905;-47
2022/06/08 00:58:37;;;;;;;1.38;1.13;;;14.90;99.90;;;;;;4081982;29;20953;-48
2022/06/08 01:00:59;;;;;;;1.58;1.10;;;15.00;99.90;;;;;;4095910;29;20480;-48
2022/06/08 01:03:21;;;;;;;3.85;1.23;;;14.90;99.90;;;;;;4080822;29;20070;-46
2022/06/08 01:05:54;;;;;;;1.83;1.00;;;14.80;99.90;;;;;;4087870;29;20049;-49
2022/06/08 01:08:39;;;;;;;1.52;1.38;;;14.80;99.90;;;;;;4095693;29;20045;-49
2022/06/08 01:11:09;;;;;;;3.25;1.13;;;14.80;99.90;;;;;;4095592;29;20143;-47
2022/06/08 01:13:33;;;;;;;1.83;1.00;;;14.80;99.90;;;;;;4079895;29;20054;-49
2022/06/08 01:15:54;;;;;;;4.07;1.25;;;14.60;99.90;;;;;;4092980;29;20057;-49
2022/06/08 01:18:16;;;;;;;1.20;1.10;;;14.80;99.90;;;;;;4095122;29;20093;-49
2022/06/08 01:20:45;;;;;;;1.17;1.08;;;14.80;99.90;;;;;;4096126;29;20161;-50
2022/06/08 01:23:06;;;;;;;1.10;1.10;;;14.70;99.90;;;;;;4079580;29;20062;-50
2022/06/08 01:25:37;;;;;;;3.80;1.00;;;14.50;99.90;;;;;;4092487;29;20054;-48
2022/06/08 01:28:05;;;;;;;1.88;1.00;;;14.50;99.90;;;;;;4094255;29;20054;-48
2022/06/08 01:31:01;;;;;;;1.98;1.88;;;14.50;99.90;;;;;;4095440;29;20591;-48
2022/06/08 01:33:41;;;;;;;1.35;1.05;;;14.50;99.90;;;;;;4094553;29;20194;-49
2022/06/08 01:36:40;;;;;;;1.75;1.38;;;14.50;99.90;;;;;;4079708;29;20415;-48
2022/06/08 01:39:09;;;;;;;1.33;1.20;;;14.30;99.90;;;;;;4079725;29;20058;-49
2022/06/08 01:41:49;;;;;;;1.52;1.42;;;14.20;99.90;;;;;;4079654;29;20527;-47
2022/06/08 01:44:22;;;;;;;1.20;1.10;;;14.10;99.90;;;;;;4090648;29;20047;-49
2022/06/08 01:46:53;;;;;;;1.30;1.20;;;14.10;99.90;;;;;;4095625;29;20144;-47
2022/06/08 01:49:23;;;;;;;2.05;1.67;;;14.20;99.90;;;;;;4094124;29;20475;-46
2022/06/08 01:52:19;;;;;;;2.72;1.15;;;14.20;99.90;;;;;;4079848;29;20058;-47
2022/06/08 01:54:44;;;;;;;1.85;1.00;;;14.30;99.90;;;;;;4079483;29;20093;-46
2022/06/08 01:57:11;;;;;;;2.25;1.20;;;14.20;99.90;;;;;;4089544;29;20062;-48
2022/06/08 01:59:42;;;;;;;5.30;1.60;;;14.10;99.90;;;;;;4095196;29;20121;-48
2022/06/08 02:02:39;;;;;;;1.02;0.93;;;14.00;99.90;;;;;;4095736;29;20061;-49
2022/06/08 02:05:22;;;;;;;5.45;1.00;;;14.10;99.90;;;;;;4079511;29;20063;-47
2022/06/08 02:07:55;;;;;;;2.22;1.20;;;14.20;99.90;;;;;;4084819;29;20085;-46
2022/06/08 02:10:23;;;;;;;1.02;1.00;;;14.30;99.90;;;;;;4094275;29;20058;-49
2022/06/08 02:13:08;;;;;;;2.88;1.20;;;14.20;99.90;;;;;;4087380;29;20130;-46
2022/06/08 02:15:39;;;;;;;1.27;1.00;;;14.10;99.90;;;;;;4095699;28;20050;-50
2022/06/08 02:18:06;;;;;;;1.20;1.10;;;14.10;99.90;;;;;;4094619;28;20070;-48
2022/06/08 02:20:37;;;;;;;1.15;1.00;;;14.20;99.90;;;;;;4079318;29;20058;-48
2022/06/08 02:23:45;;;;;;;2.08;1.10;;;14.30;99.90;;;;;;4093022;29;20058;-49
2022/06/08 02:26:14;;;;;;;1.67;1.30;;;14.30;99.90;;;;;;4129210;28;20061;-46
2022/06/08 02:28:40;;;;;;;1.50;1.10;;;14.30;99.90;;;;;;4126742;28;20056;-49
2022/06/08 02:31:13;;;;;;;1.00;1.00;;;14.20;99.90;;;;;;4127025;28;20065;-49
2022/06/08 02:36:34;;;;;;;2.95;1.00;;;14.10;99.90;;;;;;4132623;28;20453;-48
2022/06/08 02:39:13;;;;;;;1.25;1.20;;;13.80;99.90;;;;;;4145109;28;20088;-48
2022/06/08 02:41:39;;;;;;;1.40;1.30;;;13.90;99.90;;;;;;4159382;28;20128;-47
2022/06/08 02:44:06;;;;;;;13.00;1.75;;;13.90;99.90;;;;;;4148780;28;20057;-46
2022/06/08 02:46:43;;;;;;;2.92;1.40;;;13.80;99.90;;;;;;4142937;28;20100;-45
2022/06/08 02:49:07;;;;;;;3.08;2.67;;;13.90;99.90;;;;;;4142797;28;20112;-49
2022/06/08 02:51:30;;;;;;;1.40;1.30;;;13.90;99.90;;;;;;4126510;28;20596;-45
2022/06/08 02:53:59;;;;;;;2.00;1.83;;;14.00;99.90;;;;;;4126954;28;20068;-48
2022/06/08 02:56:31;;;;;;;1.52;1.15;;;14.00;99.90;;;;;;4126707;28;20065;-47
2022/06/08 02:59:13;;;;;;;1.67;1.20;;;14.00;99.90;;;;;;4126775;28;20109;-49
2022/06/08 03:01:41;;;;;;;1.20;1.10;;;13.90;99.90;;;;;;4107452;28;20596;-47
2022/06/08 03:04:10;;;;;;;3.00;1.40;;;13.80;99.90;;;;;;4078686;29;20047;-49
2022/06/08 03:06:40;;;;;;;2.45;1.30;;;13.60;99.90;;;;;;4077507;29;20070;-49
2022/06/08 03:09:05;;;;;;;3.33;1.52;;;13.60;99.90;;;;;;4078665;29;20082;-50
2022/06/08 03:11:41;;;;;;;1.20;1.08;;;13.60;99.90;;;;;;4116877;28;20428;-49
2022/06/08 03:14:07;;;;;;;1.63;1.00;;;13.40;99.90;;;;;;4177557;28;20060;-49
2022/06/08 03:16:31;;;;;;;1.10;1.10;;;13.30;99.90;;;;;;4177698;28;20071;-46
2022/06/08 03:18:53;;;;;;;1.95;1.35;;;13.20;99.90;;;;;;4078425;29;20050;-46
2022/06/08 03:21:14;;;;;;;1.25;1.15;;;13.10;99.90;;;;;;4082404;29;20119;-49
2022/06/08 03:23:35;;;;;;;2.50;1.50;;;13.10;99.90;;;;;;4093924;29;20489;-48
2022/06/08 03:25:57;;;;;;;1.88;1.40;;;13.10;99.90;;;;;;4078260;29;20057;-46
2022/06/08 03:28:19;;;;;;;1.75;1.30;;;13.10;99.90;;;;;;4088605;29;20100;-48
2022/06/08 03:30:42;;;;;;;1.15;1.15;;;13.00;99.90;;;;;;4094496;29;20152;-48
2022/06/08 03:33:03;;;;;;;;;;;13.00;99.90;;;;;;4093251;29;20065;-49
2022/06/08 03:35:25;;;;;;;2.90;2.00;;;13.00;99.90;;;;;;4093632;29;20232;-50
2022/06/08 03:37:46;;;;;;;2.35;1.20;;;13.10;99.90;;;;;;4093974;29;20062;-47
2022/06/08 03:40:08;;;;;;;4.00;1.55;;;13.20;99.90;;;;;;4093907;29;20101;-48
2022/06/08 03:42:29;;;;;;;1.52;1.45;;;13.30;99.90;;;;;;4094379;29;20109;-49
2022/06/08 03:44:51;;;;;;;2.47;1.23;;;13.40;99.90;;;;;;4092723;29;20339;-48
2022/06/08 03:47:17;;;;;;;2.30;1.20;;;13.40;99.90;;;;;;4094181;29;20133;-49
2022/06/08 03:49:39;;;;;;;1.50;1.45;;;13.40;99.90;;;;;;4093946;29;20050;-46
2022/06/08 03:52:03;;;;;;;1.67;1.17;;;13.40;99.90;;;;;;4095181;28;20519;-49
2022/06/08 03:54:29;;;;;;;1.50;1.27;;;13.40;99.90;;;;;;4096816;29;20422;-46
2022/06/08 03:57:15;;;;;;;1.55;1.23;;;13.30;99.90;;;;;;4088051;29;20058;-49
2022/06/08 03:59:40;;;;;;;1.77;1.67;;;13.20;99.90;;;;;;4150796;28;20138;-47
2022/06/08 04:02:03;;;;;;;1.73;1.13;;;13.10;99.90;;;;;;4161790;28;20123;-46
2022/06/08 04:04:26;;;;;;;2.97;1.27;;;13.10;99.90;;;;;;4145211;28;20221;-49
2022/06/08 04:06:49;;;;;;;1.63;1.40;;;13.10;99.90;;;;;;4157077;28;20127;-49
2022/06/08 04:09:11;;;;;;;1.85;1.75;;;13.10;99.90;;;;;;4161709;28;20331;-47
2022/06/08 04:11:33;;;;;;;3.05;1.75;;;13.10;99.90;;;;;;4160971;28;20612;-46
2022/06/08 04:13:55;;;;;;;2.50;1.45;;;13.10;99.90;;;;;;4145122;28;20135;-46
2022/06/08 04:16:17;;;;;;;1.73;1.42;;;13.00;99.90;;;;;;4153408;28;20140;-48
2022/06/08 04:18:39;;;;;;;1.48;1.10;;;13.10;99.90;;;;;;4156349;28;20065;-47
2022/06/08 04:21:03;;;;;;;1.63;1.10;;;13.10;99.90;;;;;;4141223;28;20056;-47
2022/06/08 04:23:27;;;;;;;2.97;1.58;;;13.20;99.90;;;;;;4161589;28;20539;-50
2022/06/08 04:25:49;;;;;;;4.47;1.38;;;13.30;99.90;;;;;;4160889;28;20052;-45
2022/06/08 04:28:13;;;;;;;2.03;1.92;;;13.30;99.90;;;;;;4161680;28;20083;-48
2022/06/08 04:30:35;;;;;;;2.17;1.95;;;13.40;99.90;;;;;;4147249;28;20428;-48
2022/06/08 04:32:57;;;;;;;1.73;1.58;;;13.30;99.90;;;;;;4153604;28;20131;-47
2022/06/08 04:35:21;;;;;;;1.73;1.63;;;13.50;99.90;;;;;;4129706;28;20052;-48
2022/06/08 04:37:43;;;;;;;1.33;1.23;;;13.50;99.90;;;;;;4080753;29;20495;-49
2022/06/08 04:40:09;;;;;;;1.90;1.75;;;13.60;99.90;;;;;;4080801;29;20054;-47
2022/06/08 04:42:32;;;;;;;3.47;1.80;;;13.50;99.90;;;;;;4080609;29;20150;-47
2022/06/08 04:44:53;;;;;;;;;;;13.50;99.90;;;;;;4081052;29;20124;-47
2022/06/08 04:47:15;;;;;;;2.05;1.35;;;13.50;99.90;;;;;;4079655;29;19930;-47
2022/06/08 04:49:38;;;;;;;2.45;1.27;;;13.50;99.90;;;;;;4084449;29;20090;-47
2022/06/08 04:51:59;;;;;;;5.15;2.10;;;13.50;99.90;;;;;;4095786;29;20521;-49
2022/06/08 04:54:23;;;;;;;3.08;1.90;;;13.50;99.90;;;;;;4095996;29;20595;-46
2022/06/08 04:56:45;;;;;;;2.53;1.80;;;13.60;99.90;;;;;;4095872;29;20152;-49
2022/06/08 04:59:07;;;;;;;3.57;1.60;;;13.60;99.90;;;;;;4096413;29;20101;-49
2022/06/08 05:01:29;;;;;;;2.08;1.90;;;13.50;99.90;;;;;;4095097;29;20515;-48
2022/06/08 05:03:51;;;;;;;1.90;1.80;;;13.60;99.90;;;;;;4095851;29;20065;-47
2022/06/08 05:06:13;;;;;;;2.22;2.15;;;13.70;99.90;;;;;;4095796;29;20108;-46
2022/06/08 05:08:35;;;;;;;2.23;1.63;;;13.70;99.90;;;;;;4095840;29;20058;-48
2022/06/08 05:10:57;;;;;;;2.53;2.10;;;13.80;99.90;;;;;;4107537;28;20109;-45
2022/06/08 05:13:20;;;;;;;2.38;2.00;;;13.70;99.90;;;;;;4179605;28;20523;-49
2022/06/08 05:15:43;;;;;;;1.55;1.45;;;13.80;99.90;;;;;;4122914;28;20065;-45
2022/06/08 05:18:06;;;;;;;3.85;1.52;;;13.80;99.90;;;;;;4095383;28;20105;-47
2022/06/08 05:20:29;;;;;;;4.63;1.30;;;13.80;99.90;;;;;;4095314;29;20117;-48
2022/06/08 05:22:51;;;;;;;1.65;1.48;;;13.80;99.90;;;;;;4079742;29;20542;-47
2022/06/08 05:25:17;;;;;;;3.55;1.42;;;14.00;99.90;;;;;;4090188;29;20049;-48
2022/06/08 05:27:38;;;;;;;1.88;1.23;;;14.10;99.90;;;;;;4095099;29;20042;-46
2022/06/08 05:30:00;;;;;;;1.45;1.35;;;14.20;99.90;;;;;;4094706;29;20118;-44
2022/06/08 05:32:22;;;;;;;1.60;1.50;;;14.30;99.90;;;;;;4081083;29;20054;-48
2022/06/08 05:34:44;;;;;;;2.83;1.73;;;14.30;99.90;;;;;;4094890;29;20432;-45
2022/06/08 05:37:06;;;;;;;2.35;1.77;;;14.30;99.90;;;;;;4095192;29;20301;-45
2022/06/08 05:39:29;;;;;;;3.90;1.35;;;14.50;99.90;;;;;;4095719;29;20049;-47
2022/06/08 05:41:50;;;;;;;1.63;1.58;;;14.60;99.90;;;;;;4095346;29;20668;-45
2022/06/08 05:44:11;;;;;;;4.22;1.77;;;14.60;99.90;;;;;;4091695;29;20121;-46
2022/06/08 05:46:34;;;;;;;1.58;1.48;;;14.70;99.90;;;;;;4092832;29;20482;-48
2022/06/08 05:48:57;;;;;;;2.17;2.08;;;14.80;99.90;;;;;;4079701;29;20110;-46
2022/06/08 05:51:18;;;;;;;1.88;1.77;;;14.80;99.90;;;;;;4094554;29;20096;-47
2022/06/08 05:53:40;;;;;;;4.32;2.63;;;14.90;99.90;;;;;;4092964;29;20050;-47
2022/06/08 05:56:03;;;;;;;3.55;1.88;;;15.00;99.90;;;;;;4095153;29;20533;-46
2022/06/08 05:58:24;;;;;;;2.40;2.30;;;15.50;99.90;;;;;;4095388;29;20146;-46
2022/06/08 06:00:46;;;;;;;4.85;2.17;;;15.50;99.90;;;;;;4095200;29;20124;-47
2022/06/08 06:03:08;;;;;;;3.00;1.48;;;15.60;99.90;;;;;;4094967;29;20050;-46
2022/06/08 06:05:32;;;;;;;3.63;1.98;;;15.60;99.90;;;;;;4095134;29;20121;-45
2022/06/08 06:07:56;;;;;;;1.70;1.45;;;15.60;99.90;;;;;;4094364;29;20058;-47
2022/06/08 06:10:19;;;;;;;4.35;1.20;;;15.80;99.90;;;;;;4093870;29;20062;-45
2022/06/08 06:12:41;;;;;;;3.65;1.20;;;16.20;99.90;;;;;;4086246;29;20058;-47
2022/06/08 06:15:03;;;;;;;1.10;1.10;;;16.50;99.90;;;;;;4094385;28;20058;-48
2022/06/08 06:17:24;;;;;;;1.10;1.10;;;16.60;99.90;;;;;;4093768;28;20136;-49
2022/06/08 06:19:46;;;;;;;2.00;1.80;;;16.60;99.90;;;;;;4094791;29;20387;-44
2022/06/08 06:22:08;;;;;;;2.70;1.40;;;16.70;99.90;;;;;;4094766;29;20046;-48
2022/06/08 06:24:30;;;;;;;1.77;1.48;;;16.70;99.90;;;;;;4093896;29;20122;-47
2022/06/08 06:26:53;;;;;;;1.77;1.13;;;16.90;99.90;;;;;;4078992;29;20094;-48
2022/06/08 06:29:15;;;;;;;4.43;0.90;;;17.40;99.90;;;;;;4091352;29;20616;-48
2022/06/08 06:31:58;;;;;;;1.08;1.08;;;17.60;99.90;;;;;;4095313;29;20123;-45
2022/06/08 06:34:22;;;;;;;3.80;1.42;;;17.80;99.90;;;;;;4094970;29;20414;-48
2022/06/08 06:36:44;;;;;;;3.47;1.00;;;18.10;99.90;;;;;;4094719;29;20053;-47
2022/06/08 06:39:07;;;;;;;3.10;1.05;;;18.60;99.90;;;;;;4094790;29;20054;-49
2022/06/08 06:41:29;;;;;;;1.23;0.88;;;19.00;99.90;;;;;;4095045;29;20169;-45
2022/06/08 06:43:52;;;;;;;1.10;1.00;;;19.10;99.90;;;;;;4093089;29;20097;-49
2022/06/08 06:46:15;;;;;;;1.67;1.00;;;19.00;99.90;;;;;;4079133;29;20094;-48
2022/06/08 06:48:38;;;;;;;1.55;1.23;;;19.30;99.90;;;;;;4078618;29;20059;-47
2022/06/08 06:50:59;;;;;;;1.98;1.40;;;19.50;99.90;;;;;;4093127;29;20046;-48
2022/06/08 06:53:20;;;;;;;2.28;0.90;;;19.90;99.90;;;;;;4094385;29;20135;-46
2022/06/08 06:55:42;;;;;;;7.47;1.50;;;19.90;99.90;;;;;;4094754;29;20414;-46
2022/06/08 06:58:05;;;;;;;1.37;0.80;;;20.40;99.90;;;;;;4094739;29;20458;-48
2022/06/08 07:00:27;;;;;;;0.93;0.75;;;20.50;99.90;;;;;;4093088;29;20513;-45
2022/06/08 07:02:49;;;;;;;2.22;0.80;;;20.60;99.90;;;;;;4094294;29;20050;-47
2022/06/08 07:05:21;;;;;;;1.45;0.80;;;20.40;99.90;;;;;;4094438;29;20050;-46
2022/06/08 07:07:44;;;;;;;0.93;0.80;;;20.30;99.90;;;;;;4093038;29;20823;-45
2022/06/08 07:10:05;;;;;;;0.88;0.80;;;20.50;99.90;;;;;;4094197;29;20517;-48
2022/06/08 07:12:27;;;;;;;1.20;0.80;;;20.60;99.90;;;;;;4164286;28;20421;-46
2022/06/08 07:14:49;;;;;;;1.05;1.05;;;20.70;99.90;;;;;;4094012;29;20141;-48
2022/06/08 07:17:11;;;;;;;1.38;1.00;;;20.60;99.90;;;;;;4093856;28;20561;-45
2022/06/08 07:19:34;;;;;;;1.58;1.27;;;20.80;99.90;;;;;;4087913;29;20135;-47
2022/06/08 07:21:55;;;;;;;1.37;0.90;;;20.80;99.90;;;;;;4085950;29;20101;-46
2022/06/08 07:24:30;;;;;;;0.97;0.80;;;20.90;99.90;;;;;;4078632;29;20071;-46
2022/06/08 07:26:51;;;;;;;1.73;0.80;;;21.30;99.90;;;;;;4091232;29;20991;-45
2022/06/08 07:29:15;;;;;;;1.55;0.73;;;21.80;99.90;;;;;;4094075;29;20533;-47
2022/06/08 07:31:36;;;;;;;0.70;0.70;;;21.70;99.90;;;;;;4093977;29;20070;-50
2022/06/08 07:34:00;;;;;;;1.25;0.80;;;21.90;99.90;;;;;;4094268;29;20423;-49
2022/06/08 07:36:21;;;;;;;1.90;0.70;;;22.00;99.90;;;;;;4080939;29;20074;-47
2022/06/08 07:38:44;;;;;;;2.38;0.60;;;22.20;99.90;;;;;;4083792;29;20065;-45
2022/06/08 07:41:08;;;;;;;0.77;0.70;;;22.30;99.90;;;;;;4094032;29;20481;-47
2022/06/08 07:43:33;;;;;;;0.70;0.70;;;22.80;99.90;;;;;;4094129;29;20329;-47
2022/06/08 07:45:55;;;;;;;2.17;0.75;;;22.60;99.90;;;;;;4081018;29;20054;-44
2022/06/08 07:50:58;;;;;;;2.78;0.90;;;23.20;99.90;;;;;;4090588;29;20410;-48
2022/06/08 07:53:21;;;;;;;6.57;1.37;;;23.20;99.90;;;;;;4078197;29;20127;-49
2022/06/08 07:55:44;;;;;;;2.50;0.60;;;23.60;99.90;;;;;;4093098;29;20105;-46
2022/06/08 07:58:07;;;;;;;0.98;0.85;;;23.90;99.90;;;;;;4093968;29;20054;-45
2022/06/08 08:00:29;;;;;;;0.60;0.60;;;24.00;99.90;;;;;;4093930;29;20638;-46
2022/06/08 08:02:52;;;;;;;1.50;0.60;;;23.80;99.90;;;;;;4093857;29;20097;-46
2022/06/08 08:05:15;;;;;;;0.93;0.73;;;24.00;99.90;;;;;;4093972;29;20055;-49
2022/06/08 08:07:38;;;;;;;0.77;0.60;;;24.10;99.90;;;;;;4093854;29;20105;-45
2022/06/08 08:10:01;;;;;;;3.42;0.52;;;23.80;99.90;;;;;;4091744;29;20073;-46
2022/06/08 08:12:22;;;;;;;0.50;0.50;;;24.00;99.90;;;;;;4162970;28;20107;-46
2022/06/08 08:14:44;;;;;;;0.50;0.50;;;24.10;99.90;;;;;;4102018;28;20465;-45
2022/06/08 08:17:06;;;;;;;4.70;0.60;;;24.50;99.90;;;;;;4093286;28;20057;-48
2022/06/08 08:19:28;;;;;;;1.75;0.60;;;24.70;99.90;;;;;;4078555;29;20102;-48
2022/06/08 08:21:51;;;;;;;1.65;0.50;;;24.60;99.90;;;;;;4093648;29;20121;-49
2022/06/08 08:24:13;;;;;;;1.75;0.50;;;24.50;99.90;;;;;;4080291;29;20488;-48
2022/06/08 08:26:34;;;;;;;1.63;0.60;;;24.40;99.90;;;;;;4084540;29;20109;-46
2022/06/08 08:28:57;;;;;;;0.50;0.50;;;24.40;99.90;;;;;;4093608;29;20088;-48
2022/06/08 08:31:18;;;;;;;0.70;0.70;;;24.40;99.90;;;;;;4093605;29;20062;-46
2022/06/08 08:33:40;;;;;;;0.50;0.50;;;24.70;99.90;;;;;;4093482;29;20510;-47
2022/06/08 08:36:02;;;;;;;0.50;0.50;;;24.10;99.90;;;;;;4087342;29;20121;-45
2022/06/08 08:38:24;;;;;;;2.37;0.97;;;24.10;99.90;;;;;;4079525;29;20303;-45
2022/06/08 08:40:51;;;;;;;;;;;24.60;99.90;;;;;;4080838;29;20108;-49
2022/06/08 08:43:21;;;;;;;1.45;0.50;;;24.80;99.90;;;;;;4080842;29;20392;-46
2022/06/08 08:46:10;;;;;;;1.02;0.50;;;25.00;99.90;;;;;;4086925;29;20138;-47
2022/06/08 08:48:52;;;;;;;0.93;0.40;;;25.00;99.90;;;;;;4096257;29;20073;-48
2022/06/08 08:51:21;;;;;;;1.23;0.40;;;25.10;99.90;;;;;;4080347;29;20067;-49
2022/06/08 08:53:57;;;;;;;0.50;0.40;;;25.60;99.90;;;;;;4080521;29;20537;-46
2022/06/08 08:56:28;;;;;;;0.60;0.40;;;25.40;99.90;;;;;;4093997;29;20054;-48
2022/06/08 08:58:50;;;;;;;0.35;0.35;;;25.70;99.90;;;;;;4096115;29;20070;-46
2022/06/08 09:01:31;;;;;;;0.30;0.30;;;25.70;98.30;;;;;;4095862;29;20050;-45
2022/06/08 09:04:11;;;;;;;0.40;0.40;;;25.70;99.10;;;;;;4095786;29;20053;-46
2022/06/08 09:06:35;;;;;;;0.30;0.30;;;25.70;99.90;;;;;;4095743;29;20062;-45
2022/06/08 09:09:00;;;;;;;0.40;0.40;;;25.20;98.80;;;;;;4093943;29;20050;-47
2022/06/08 09:11:26;;;;;;;0.40;0.40;;;25.40;99.10;;;;;;4125318;28;20087;-47
2022/06/08 09:13:56;;;;;;;0.30;0.30;;;25.90;99.10;;;;;;4168414;28;20102;-47
2022/06/08 09:16:29;;;;;;;0.30;0.30;;;26.10;98.70;;;;;;4080252;29;20054;-47
2022/06/08 09:18:50;;;;;;;1.17;0.52;;;26.20;98.10;;;;;;4095673;29;20482;-46
2022/06/08 09:21:30;;;;;;;0.40;0.40;;;26.30;97.30;;;;;;4095470;29;20042;-48
2022/06/08 09:23:54;;;;;;;1.77;0.30;;;26.20;97.70;;;;;;4092227;29;20054;-48
2022/06/08 09:26:28;;;;;;;0.30;0.30;;;26.30;97.80;;;;;;4089373;29;20153;-47
2022/06/08 09:29:10;;;;;;;0.98;0.77;;;26.20;98.30;;;;;;4094529;29;20135;-45
2022/06/08 09:31:34;;;;;;;0.43;0.40;;;26.20;98.50;;;;;;4090995;29;20105;-47
2022/06/08 09:34:26;;;;;;;1.55;0.40;;;26.50;98.00;;;;;;4085618;29;20098;-45
2022/06/08 09:37:14;;;;;;;0.93;0.57;;;26.20;97.40;;;;;;4083416;29;20127;-48
2022/06/08 09:39:36;;;;;;;1.85;0.40;;;26.60;97.90;;;;;;4088596;29;20402;-46
2022/06/08 09:42:03;;;;;;;0.90;0.30;;;27.20;96.80;;;;;;4094224;29;20153;-47
2022/06/08 09:44:28;;;;;;;0.50;0.40;;;27.20;96.70;;;;;;4088270;29;20532;-47
2022/06/08 09:53:36;;;;;;;0.50;0.50;;;27.90;95.80;;;;;;4087244;29;20046;-45
2022/06/08 09:56:30;;;;;;;0.30;0.30;;;26.90;95.60;;;;;;4086957;29;20546;-47
2022/06/08 09:59:02;;;;;;;0.35;0.35;;;26.90;95.90;;;;;;4095189;29;20081;-46
2022/06/08 10:01:32;;;;;;;0.30;0.30;;;26.80;95.20;;;;;;4090229;29;20155;-48
2022/06/08 10:04:00;;;;;;;0.20;0.20;;;27.20;93.90;;;;;;4080507;29;20079;-47
2022/06/08 10:06:28;;;;;;;0.30;0.28;;;26.90;93.20;;;;;;4093380;29;20097;-49
2022/06/08 10:09:28;;;;;;;0.50;0.20;;;27.20;92.80;;;;;;4092222;29;20054;-48
2022/06/08 10:12:02;;;;;;;0.30;0.30;;;27.70;92.10;;;;;;4105235;28;20081;-45
2022/06/08 10:15:01;;;;;;;0.57;0.55;;;27.20;92.20;;;;;;4089410;29;20129;-47
2022/06/08 10:17:32;;;;;;;0.40;0.38;;;27.50;92.80;;;;;;4146670;28;20135;-46
2022/06/08 10:19:58;;;;;;;0.98;0.30;;;27.80;92.40;;;;;;4091165;28;20134;-44
2022/06/08 10:22:24;;;;;;;0.30;0.30;;;27.20;90.70;;;;;;4086897;29;20086;-47
2022/06/08 10:24:58;;;;;;;1.17;0.30;;;27.30;92.60;;;;;;4090283;29;20534;-48
2022/06/08 10:27:36;;;;;;;0.30;0.30;;;27.40;92.10;;;;;;4087088;29;20058;-44
2022/06/08 10:30:11;;;;;;;0.30;0.30;;;28.10;93.40;;;;;;4086415;29;20146;-46
2022/06/08 10:32:41;;;;;;;0.30;0.30;;;28.20;91.40;;;;;;4084961;29;20063;-47
2022/06/08 10:35:25;;;;;;;1.05;0.30;;;28.90;94.70;;;;;;4091947;29;20063;-47
2022/06/08 10:37:47;;;;;;;0.32;0.30;;;29.30;91.80;;;;;;4088610;29;20419;-48
2022/06/08 10:40:14;;;;;;;0.55;0.20;;;29.60;91.40;;;;;;4094520;29;20058;-45
2022/06/08 10:42:39;;;;;;;0.80;0.28;;;29.20;90.30;;;;;;4078630;29;20094;-47
2022/06/08 10:45:23;;;;;;;1.25;0.30;;;29.00;92.40;;;;;;4079150;29;20058;-48
2022/06/08 10:47:57;;;;;;;2.20;0.30;;;28.30;90.20;;;;;;4091857;29;20573;-46
2022/06/08 10:50:33;;;;;;;0.32;0.25;;;28.80;92.80;;;;;;4087868;29;20110;-46
2022/06/08 10:54:53;;;;;;;0.20;0.20;;;28.50;91.30;;;;;;4092544;29;20093;-45
2022/06/08 10:55:39;;;;;;;0.38;0.30;;;29.10;90.10;;;;;;4086398;29;20050;-46
2022/06/08 10:58:11;;;;;;;0.30;0.30;;;28.90;91.10;;;;;;4078542;29;20062;-46
2022/06/08 11:00:41;;;;;;;0.73;0.30;;;28.90;92.20;;;;;;4091503;28;20054;-45
2022/06/08 11:03:05;;;;;;;0.30;0.30;;;28.60;89.10;;;;;;4087422;29;20093;-45
2022/06/08 11:05:44;;;;;;;0.30;0.30;;;28.60;90.90;;;;;;4086549;29;20113;-46
2022/06/08 11:08:15;;;;;;;0.35;0.25;;;28.40;88.50;;;;;;4094346;29;20113;-48
2022/06/08 11:13:24;;;;;;;1.08;0.20;;;28.40;90.50;;;;;;4091231;29;20070;-46
2022/06/08 11:16:12;;;;;;;0.30;0.30;;;28.30;90.10;;;;;;4083257;29;20062;-48
2022/06/08 11:18:57;;;;;;;0.20;0.20;;;28.60;90.80;;;;;;4087044;28;20063;-46
2022/06/08 11:21:25;;;;;;;0.40;0.40;;;29.00;90.40;;;;;;4081787;29;20996;-48
2022/06/08 11:23:54;;;;;;;0.85;0.30;;;28.90;87.00;;;;;;4094112;29;20054;-44
2022/06/08 11:26:23;;;;;;;0.30;0.30;;;28.40;90.30;;;;;;4093905;29;20058;-47
2022/06/08 11:28:48;;;;;;;0.57;0.30;;;28.30;91.00;;;;;;4094093;29;20518;-48
2022/06/08 11:31:27;;;;;;;0.20;0.20;;;27.90;89.10;;;;;;4090915;29;20053;-49
2022/06/08 11:33:57;;;;;;;5.00;0.30;;;28.10;90.70;;;;;;4094030;29;20062;-46
2022/06/08 11:36:37;;;;;;;0.30;0.30;;;28.00;90.80;;;;;;4093870;29;20577;-48
2022/06/08 11:39:24;;;;;;;0.30;0.30;;;28.60;90.20;;;;;;4093730;29;20077;-47
2022/06/08 11:42:19;;;;;;;1.20;0.30;;;29.10;88.40;;;;;;4089184;29;20117;-49
2022/06/08 11:44:48;;;;;;;0.80;0.30;;;29.40;90.60;;;;;;4093855;29;20049;-46
2022/06/08 11:47:10;;;;;;;0.30;0.30;;;29.20;90.00;;;;;;4094148;29;20424;-48
2022/06/08 11:49:39;;;;;;;2.13;0.30;;;28.70;90.20;;;;;;4093049;29;20046;-48
2022/06/08 11:52:17;;;;;;;0.98;0.30;;;28.80;91.00;;;;;;4093957;29;20414;-45
2022/06/08 11:54:38;;;;;;;0.35;0.30;;;28.90;89.80;;;;;;4093766;29;20059;-47
2022/06/08 11:57:16;;;;;;;0.43;0.30;;;28.20;90.10;;;;;;4093939;29;20540;-46
2022/06/08 11:59:40;;;;;;;0.73;0.32;;;28.50;91.60;;;;;;4094052;29;20093;-47
2022/06/08 12:02:22;;;;;;;0.30;0.30;;;28.20;90.70;;;;;;4092945;29;20066;-46
2022/06/08 12:04:49;;;;;;;1.52;0.30;;;28.20;91.00;;;;;;4092944;29;20101;-47
2022/06/08 12:07:37;;;;;;;0.30;0.30;;;28.60;90.80;;;;;;4093485;29;20482;-46
2022/06/08 12:09:59;;;;;;;0.73;0.30;;;28.80;90.20;;;;;;4093627;29;20051;-48
2022/06/08 12:12:26;;;;;;;0.40;0.30;;;28.40;89.50;;;;;;4094019;29;20836;-48
2022/06/08 12:14:48;;;;;;;0.68;0.30;;;28.50;90.70;;;;;;4096848;29;20053;-45
2022/06/08 12:17:10;;;;;;;0.32;0.30;;;28.40;90.40;;;;;;4095468;28;20415;-45
2022/06/08 12:19:48;;;;;;;1.02;0.30;;;28.80;90.00;;;;;;4093106;29;20377;-49
2022/06/08 12:22:27;;;;;;;0.35;0.35;;;28.80;90.00;;;;;;4095639;29;20054;-45
2022/06/08 12:25:15;;;;;;;0.30;0.30;;;29.30;90.40;;;;;;4096256;29;20109;-46
2022/06/08 12:27:58;;;;;;;1.20;0.30;;;29.80;90.40;;;;;;4096220;29;20050;-45
2022/06/08 12:30:27;;;;;;;0.30;0.30;;;29.80;89.40;;;;;;4096347;29;20530;-46
2022/06/08 12:32:56;;;;;;;4.50;0.30;;;30.40;90.50;;;;;;4095544;29;20139;-45
2022/06/08 12:35:24;;;;;;;0.90;0.30;;;30.40;88.10;;;;;;4095981;29;20066;-52
2022/06/08 12:37:46;;;;;;;0.38;0.30;;;30.40;88.90;;;;;;4095201;29;20069;-51
2022/06/08 12:40:17;;;;;;;3.50;0.30;;;29.90;86.80;;;;;;4083095;29;20134;-51
2022/06/08 12:42:50;;;;;;;0.85;0.30;;;30.50;90.40;;;;;;4096037;29;20549;-51
2022/06/08 12:45:35;;;;;;;1.25;0.30;;;31.00;83.70;;;;;;4080698;29;20399;-52
2022/06/08 12:47:57;;;;;;;0.85;0.20;;;31.60;88.60;;;;;;4093927;29;20057;-51
2022/06/08 12:50:24;;;;;;;0.30;0.30;;;31.40;85.60;;;;;;4096270;29;20116;-51
2022/06/08 12:52:46;;;;;;;0.25;0.20;;;30.90;81.40;;;;;;4095643;29;20086;-51
2022/06/08 12:55:14;;;;;;;0.30;0.30;;;30.90;85.40;;;;;;4095827;29;20130;-51
2022/06/08 12:57:36;;;;;;;0.80;0.20;;;30.80;82.30;;;;;;4095809;29;20537;-52
2022/06/08 13:00:00;;;;;;;0.22;0.20;;;30.40;83.60;;;;;;4095617;29;20450;-50
2022/06/08 13:02:27;;;;;;;0.57;0.28;;;30.10;84.70;;;;;;4096114;29;20058;-52
2022/06/08 13:04:50;;;;;;;0.30;0.20;;;30.40;85.50;;;;;;4096049;29;20049;-52